Latest Weather Observations for Hartz Mountains

IDT60801

Issued at 4:31 am EDT Wednesday 10 February 2016 (issued every 30 minutes, with the page automatically refreshed every 10 minutes)

About weather observations | Map of weather stations | Latest weather observations for TAS | Other Formats
Station Details ID: 094191 Name: HARTZ MOUNTAIN (KEOGHS PIMPLE) Lat: -43.20 Lon: 146.77 Height: 831.0 m
Data from the previous 72 hours. | See also: Recent months at Hartz Mountains
Date/Time
EDT
Temp
°C
App
Temp
°C
Dew
Point
Rel
Hum
%
Delta-T
°C
Wind Press
QNH
hPa
Press
MSL
hPa
Rain
since 9 am
mm
Dir
 
Spd
km/h
Gust
km/h
Spd
kts
Gust
kts
10/04:30am 8.0 0.8 6.1 88 0.9 W 33 44 18 24 - - 0.0
10/04:00am 8.2 -0.1 6.2 87 1.0 WSW 39 52 21 28 - - 0.0
10/03:30am 8.2 -0.5 6.2 87 1.0 W 41 50 22 27 - - 0.0
10/03:00am 8.5 -1.1 6.3 86 1.1 WSW 46 59 25 32 - - 0.0
10/02:30am 8.8 -1.6 5.9 82 1.4 W 50 65 27 35 - - 0.0
10/02:00am 8.9 -1.8 6.3 84 1.3 W 52 63 28 34 - - 0.0
10/01:30am 8.9 -0.3 6.5 85 1.2 WSW 44 63 24 34 - - 0.0
10/01:25am 8.9 -0.3 6.5 85 1.2 W 44 63 24 34 - - 0.0
10/01:00am 8.9 0.0 6.7 86 1.1 W 43 57 23 31 - - 0.0
10/12:30am 9.1 1.0 7.1 87 1.0 W 39 54 21 29 - - 0.0
10/12:00am 9.5 0.2 7.4 87 1.0 WSW 46 57 25 31 - - 0.0
 
Date/Time
EDT
Temp
°C
App
Temp
°C
Dew
Point
Rel
Hum
%
Delta-T
°C
Wind Press
QNH
hPa
Press
MSL
hPa
Rain
since 9 am
mm
Dir
 
Spd
km/h
Gust
km/h
Spd
kts
Gust
kts
09/11:30pm 9.8 2.1 7.1 83 1.3 W 37 50 20 27 - - 0.0
09/11:00pm 10.3 3.0 7.4 82 1.5 W 35 46 19 25 - - 0.0
09/10:30pm 10.6 2.7 7.7 82 1.5 W 39 50 21 27 - - 0.0
09/10:00pm 11.3 3.7 7.6 78 1.9 W 37 46 20 25 - - 0.0
09/09:30pm 11.5 5.1 8.4 81 1.6 W 32 44 17 24 - - 0.0
09/09:00pm 12.2 5.6 8.7 79 1.8 W 33 44 18 24 - - 0.0
09/08:30pm 13.1 7.3 9.4 78 2.0 W 30 39 16 21 - - 0.0
09/08:00pm 15.1 10.2 9.9 71 2.8 W 26 39 14 21 - - 0.0
09/07:30pm 17.6 12.5 10.5 63 4.0 W 28 41 15 22 - - 0.0
09/07:00pm 18.1 13.7 10.5 61 4.2 W 24 35 13 19 - - 0.0
09/06:30pm 18.3 14.1 9.6 57 4.8 W 22 33 12 18 - - 0.0
09/06:00pm 21.0 17.3 9.3 47 6.5 WNW 19 28 10 15 - - 0.0
09/05:30pm 20.5 16.6 8.5 46 6.5 W 19 30 10 16 - - 0.0
09/05:00pm 22.4 17.7 7.8 39 7.9 WNW 22 32 12 17 - - 0.0
09/04:30pm 22.3 17.4 6.9 37 8.2 WNW 22 32 12 17 - - 0.0
09/04:00pm 22.3 18.0 7.7 39 7.9 W 20 30 11 16 - - 0.0
09/03:30pm 22.2 17.5 6.0 35 8.5 W 20 32 11 17 - - 0.0
09/03:00pm 22.3 17.6 9.1 43 7.3 WNW 24 37 13 20 - - 0.0
09/02:30pm 22.1 18.3 8.9 43 7.3 W 19 32 10 17 - - 0.0
09/02:00pm 20.4 16.2 8.4 46 6.5 WNW 20 30 11 16 - - 0.0
09/01:30pm 20.0 15.9 8.7 48 6.2 W 20 32 11 17 - - 0.0
09/01:00pm 19.1 15.4 8.1 49 5.9 W 17 30 9 16 - - 0.0
09/12:30pm 19.1 14.9 8.4 50 5.8 NW 20 28 11 15 - - 0.0
09/12:00pm 16.7 12.4 6.8 52 5.1 W 19 28 10 15 - - 0.0
09/11:30am 16.9 13.5 9.1 60 4.2 NW 17 22 9 12 - - 0.0
09/11:00am 15.1 11.5 8.3 64 3.6 WNW 17 24 9 13 - - 0.0
09/10:30am 13.9 10.9 7.7 66 3.2 W 13 22 7 12 - - 0.0
09/10:00am 12.4 8.5 7.1 70 2.7 W 17 26 9 14 - - 0.0
09/09:30am 11.7 7.9 7.4 75 2.2 W 17 26 9 14 - - 0.0
09/09:00am 11.0 6.6 6.7 75 2.1 WSW 19 26 10 14 - - 0.0
09/08:30am 10.5 7.2 6.5 76 2.0 WNW 13 22 7 12 - - 0.0
09/08:00am 9.4 2.9 6.7 83 1.3 W 30 50 16 27 - - 0.0
09/07:58am 9.4 3.3 6.7 83 1.3 W 28 50 15 27 - - 0.0
09/07:30am 9.3 4.1 5.3 76 1.9 WSW 22 50 12 27 - - 0.0
09/07:24am 9.0 0.4 6.3 83 1.3 WSW 41 63 22 34 - - 0.0
09/07:21am 8.9 -1.5 6.2 83 1.3 W 50 63 27 34 - - 0.0
09/07:00am 8.6 -3.1 6.2 85 1.2 WSW 57 74 31 40 - - 0.0
09/06:41am 8.3 -1.2 6.6 89 0.8 W 46 65 25 35 - - 0.0
09/06:30am 8.2 0.0 6.7 90 0.7 W 39 48 21 26 - - 0.0
09/06:00am 8.3 0.9 6.9 91 0.7 W 35 48 19 26 - - 0.0
09/05:49am 8.4 2.4 7.2 92 0.6 W 28 46 15 25 - - 0.0
09/05:30am 8.5 3.3 7.3 92 0.6 W 24 46 13 25 - - 0.0
09/05:04am 8.9 2.4 8.0 94 0.5 W 32 50 17 27 - - 0.0
09/05:00am 9.0 2.3 8.1 94 0.5 W 33 50 18 27 - - 0.0
09/04:56am 9.0 2.5 8.1 94 0.5 W 32 50 17 27 - - 0.0
09/04:30am 9.2 3.1 8.3 94 0.5 W 30 43 16 23 - - 0.0
09/04:00am 9.2 2.6 7.8 91 0.7 W 32 41 17 22 - - 0.0
09/03:30am 9.1 4.1 7.9 92 0.6 W 24 43 13 23 - - 0.0
09/03:00am 9.3 4.7 8.2 93 0.6 W 22 33 12 18 - - 0.0
09/02:30am 9.4 4.4 8.0 91 0.7 W 24 37 13 20 - - 0.0
09/02:00am 9.4 3.7 8.2 92 0.6 W 28 39 15 21 - - 0.0
09/01:49am 9.3 3.5 7.9 91 0.7 W 28 50 15 27 - - 0.0
09/01:30am 9.6 3.0 8.4 92 0.6 W 33 48 18 26 - - 0.0
09/01:03am 9.4 3.3 8.3 93 0.6 W 30 48 16 26 - - 0.0
09/01:00am 9.4 2.4 8.3 93 0.6 W 35 48 19 26 - - 0.0
09/12:30am 9.8 2.8 8.4 91 0.7 W 35 50 19 27 - - 0.0
09/12:00am 9.8 4.5 8.6 92 0.6 W 26 37 14 20 - - 0.0
 
Date/Time
EDT
Temp
°C
App
Temp
°C
Dew
Point
Rel
Hum
%
Delta-T
°C
Wind Press
QNH
hPa
Press
MSL
hPa
Rain
since 9 am
mm
Dir
 
Spd
km/h
Gust
km/h
Spd
kts
Gust
kts
08/11:30pm 10.0 6.2 8.9 93 0.6 W 19 28 10 15 - - 0.0
08/11:00pm 10.0 6.4 8.4 90 0.8 W 17 30 9 16 - - 0.0
08/10:30pm 10.0 6.5 8.9 93 0.6 W 17 39 9 21 - - 0.0
08/10:00pm 10.3 7.2 8.9 91 0.7 W 15 32 8 17 - - 0.0
08/09:30pm 10.8 8.3 8.2 84 1.3 NW 11 26 6 14 - - 0.0
08/09:00pm 10.9 8.0 8.0 82 1.5 W 13 35 7 19 - - 0.0
08/08:30pm 11.3 6.6 7.6 78 1.9 WNW 22 43 12 23 - - 0.0
08/08:00pm 11.5 7.3 7.4 76 2.1 WNW 19 44 10 24 - - 0.0
08/07:47pm 11.6 5.7 7.5 76 2.1 W 28 57 15 31 - - 0.0
08/07:30pm 11.8 7.6 7.5 75 2.2 WNW 19 35 10 19 - - 0.0
08/07:16pm 12.0 6.9 7.7 75 2.2 W 24 57 13 31 - - 0.0
08/07:00pm 12.6 7.9 7.9 73 2.4 WSW 22 46 12 25 - - 0.0
08/06:49pm 13.7 9.1 8.3 70 2.8 W 22 46 12 25 - - 0.0
08/06:30pm 13.3 5.5 8.4 72 2.6 W 39 65 21 35 - - 0.0
08/06:00pm 13.5 6.5 8.4 71 2.7 W 35 63 19 34 - - 0.0
08/05:32pm 14.2 5.4 7.9 66 3.3 WSW 44 63 24 34 - - 0.0
08/05:30pm 14.5 5.9 8.0 65 3.4 WSW 43 57 23 31 - - 0.0
08/05:00pm 16.5 8.8 8.7 60 4.2 W 39 69 21 37 - - 0.0
08/04:30pm 17.6 9.9 7.1 50 5.5 W 37 63 20 34 - - 0.0
08/04:00pm 18.2 11.6 7.6 50 5.6 W 32 54 17 29 - - 0.0
08/03:37pm 17.3 11.5 7.9 54 5.0 W 28 52 15 28 - - 0.0
08/03:30pm 18.7 15.0 10.3 58 4.7 W 20 50 11 27 - - 0.0
08/03:18pm 18.5 13.3 10.3 59 4.6 WNW 28 48 15 26 - - 0.0
08/03:00pm 18.5 14.9 10.6 60 4.4 WNW 20 41 11 22 - - 0.0
08/02:33pm 15.9 9.9 7.1 56 4.5 W 28 48 15 26 - - 0.0
08/02:30pm 16.7 11.9 8.7 59 4.3 W 24 48 13 26 - - 0.0
08/02:00pm 17.4 13.0 10.3 63 3.9 WNW 24 46 13 25 - - 0.0
08/01:40pm 17.8 12.5 9.9 60 4.4 WNW 28 48 15 26 - - 0.0
08/01:30pm 17.1 13.4 10.2 64 3.8 W 20 41 11 22 - - 0.0
08/01:15pm 16.0 9.9 9.7 66 3.4 WNW 32 48 17 26 - - 0.0
08/01:11pm 16.4 10.1 9.8 65 3.6 WNW 33 52 18 28 - - 0.0
08/01:00pm 15.9 10.6 9.8 67 3.3 WNW 28 48 15 26 - - 0.0
08/12:30pm 15.2 8.7 8.9 66 3.4 WNW 33 54 18 29 - - 0.0
08/12:00pm 16.4 10.1 9.8 65 3.6 W 33 52 18 28 - - 0.0
08/11:30am 15.2 9.5 9.8 70 2.9 W 30 52 16 28 - - 0.0
08/11:03am 13.5 7.0 8.8 73 2.5 WSW 33 52 18 28 - - 0.0
08/11:00am 13.5 7.1 8.6 72 2.6 W 32 46 17 25 - - 0.0
08/10:30am 14.1 6.5 9.1 72 2.7 W 39 57 21 31 - - 0.0
08/10:00am 13.2 6.7 8.9 75 2.3 WNW 33 56 18 30 - - 0.0
08/09:34am 12.0 4.5 8.1 77 2.0 W 37 57 20 31 - - 0.0
08/09:30am 12.2 5.2 8.3 77 2.0 W 35 48 19 26 - - 0.0
08/09:00am 11.9 4.9 8.6 80 1.7 WNW 35 56 19 30 - - 0.0
08/08:33am 11.3 4.9 9.4 88 1.0 W 33 52 18 28 - - 0.0
08/08:30am 11.3 4.9 9.4 88 1.0 W 33 50 18 27 - - 0.0
08/08:10am 11.3 4.2 9.4 88 1.0 WNW 37 61 20 33 - - 0.0
08/08:00am 11.4 3.9 9.3 87 1.1 W 39 52 21 28 - - 0.0
08/07:34am 11.0 3.8 9.3 89 0.9 W 37 59 20 32 - - 0.0
08/07:30am 11.0 3.5 9.3 89 0.9 W 39 48 21 26 - - 0.0
08/07:00am 10.7 4.2 8.8 88 1.0 W 33 54 18 29 - - 0.0
08/06:58am 10.6 4.3 8.9 89 0.9 W 32 52 17 28 - - 0.0
08/06:30am 10.5 4.0 8.8 89 0.9 W 33 46 18 25 - - 0.0
08/06:00am 10.5 3.2 8.9 90 0.8 W 37 57 20 31 - - 0.0
08/05:38am 10.6 5.1 9.0 90 0.8 W 28 46 15 25 - - 0.0
08/05:30am 10.7 5.2 9.1 90 0.8 W 28 43 15 23 - - 0.0
08/05:00am 11.0 7.1 9.4 90 0.8 W 20 33 11 18 - - 0.0
08/04:30am 11.3 7.1 9.7 90 0.8 W 22 35 12 19 - - 0.0
08/04:00am 11.7 8.2 10.1 90 0.9 W 19 32 10 17 - - 0.0
08/03:30am 12.2 7.0 10.4 89 1.0 W 28 39 15 21 - - 0.0
08/03:00am 12.3 7.2 10.5 89 1.0 W 28 39 15 21 - - 0.0
08/02:30am 12.5 6.1 10.6 88 1.0 W 35 54 19 29 - - 0.0
08/02:27am 12.4 6.5 10.6 89 1.0 W 32 54 17 29 - - 0.0
08/02:00am 12.3 7.8 10.2 87 1.1 W 24 35 13 19 - - 0.0
08/01:30am 12.7 7.4 9.9 83 1.5 W 28 39 15 21 - - 0.0
08/01:00am 13.0 9.3 10.2 83 1.5 W 20 33 11 18 - - 0.0
08/12:30am 12.8 9.3 10.9 88 1.0 W 20 28 11 15 - - 0.0
08/12:00am 12.4 10.3 11.0 91 0.8 WNW 13 15 7 8 - - 0.0
 
Date/Time
EDT
Temp
°C
App
Temp
°C
Dew
Point
Rel
Hum
%
Delta-T
°C
Wind Press
QNH
hPa
Press
MSL
hPa
Rain
since 9 am
mm
Dir
 
Spd
km/h
Gust
km/h
Spd
kts
Gust
kts
07/11:30pm 12.8 11.0 11.0 89 1.0 WNW 11 11 6 6 - - 0.0
07/11:00pm 13.3 11.5 11.0 86 1.3 NW 11 13 6 7 - - 0.0
07/10:30pm 13.3 12.4 11.2 87 1.2 W 7 9 4 5 - - 0.0
07/10:00pm 13.0 12.6 11.1 88 1.0 SW 4 7 2 4 - - 0.0
07/09:30pm 13.0 13.4 11.1 88 1.0 CALM 0 0 0 0 - - 0.0
07/09:00pm 12.9 11.9 11.0 88 1.0 ENE 7 7 4 4 - - 0.0
07/08:30pm 13.4 12.5 11.3 87 1.2 SE 7 11 4 6 - - 0.0
07/08:00pm 13.1 11.3 11.0 87 1.2 SSE 11 13 6 7 - - 0.0
07/07:30pm 13.6 11.9 11.3 86 1.3 ESE 11 15 6 8 - - 0.0
07/07:00pm 14.0 11.9 11.3 84 1.5 ESE 13 19 7 10 - - 0.0
07/06:30pm 15.0 13.1 11.8 81 1.8 SE 13 20 7 11 - - 0.0
07/06:00pm 15.7 13.9 12.1 79 2.0 SE 13 17 7 9 - - 0.0
07/05:30pm 15.7 13.6 12.3 80 1.9 SE 15 20 8 11 - - 0.0
07/05:00pm 18.0 16.5 13.1 73 2.9 SE 13 20 7 11 - - 0.0
07/04:30pm 18.4 16.7 12.6 69 3.4 ESE 13 22 7 12 - - 0.0
07/04:00pm 18.9 17.5 14.4 75 2.7 ESE 15 20 8 11 - - 0.0
07/03:30pm 21.0 21.0 15.1 69 3.6 E 9 17 5 9 - - 0.0
07/03:00pm 18.7 17.7 13.3 71 3.2 ESE 11 17 6 9 - - 0.0
07/02:30pm 18.0 16.5 13.1 73 2.9 ESE 13 20 7 11 - - 0.0
07/02:00pm 19.8 19.0 13.0 65 4.0 E 9 17 5 9 - - 0.0
07/01:30pm 20.7 20.2 11.9 57 5.1 NE 6 13 3 7 - - 0.0
07/01:00pm 18.1 17.5 11.7 66 3.7 NNE 6 13 3 7 - - 0.0
07/12:30pm 17.6 15.8 10.9 65 3.8 WNW 11 15 6 8 - - 0.0
07/12:00pm 18.5 18.5 12.3 67 3.6 WNW 4 15 2 8 - - 0.0
07/11:30am 15.8 15.2 12.2 79 2.1 NNE 7 13 4 7 - - 0.0
07/11:00am 15.8 14.8 12.4 80 1.9 N 9 15 5 8 - - 0.0
07/10:30am 15.6 14.6 12.4 81 1.8 N 9 13 5 7 - - 0.0
07/10:00am 14.6 14.1 12.5 87 1.2 N 7 13 4 7 - - 0.0
07/09:30am 14.1 14.9 12.7 91 0.8 CALM 0 2 0 1 - - 0.0
07/09:00am 13.5 13.8 12.2 92 0.7 ENE 2 7 1 4 - - 0.0
07/08:30am 12.6 13.1 11.5 93 0.6 CALM 0 0 0 0 - - 0.0
07/08:00am 12.7 12.8 11.4 92 0.7 N 2 7 1 4 - - 0.0
07/07:30am 12.0 11.1 10.7 92 0.7 NNW 6 7 3 4 - - 0.0
07/07:00am 12.2 11.1 10.1 87 1.1 SW 6 9 3 5 - - 0.0
07/06:30am 12.0 10.0 10.1 88 1.0 SSW 11 13 6 7 - - 0.0
07/06:00am 12.1 9.4 10.2 88 1.0 WSW 15 20 8 11 - - 0.0
07/05:30am 12.8 9.2 10.7 87 1.1 SW 20 30 11 16 - - 0.0
07/05:00am 12.8 10.0 11.4 91 0.8 WSW 17 20 9 11 - - 0.0

Other Formats:

Comma delimited format used in spreadsheet applications
http://www.bom.gov.au/fwo/IDT60801/IDT60801.94977.axf

JavaScript Object Notation format (JSON) in row-major order
http://www.bom.gov.au/fwo/IDT60801/IDT60801.94977.json